createdAt,value
2023-04-20T00:01:42.977Z,28.90
2023-04-20T00:04:09.783Z,31.40
2023-04-20T00:06:37.176Z,19.40
2023-04-20T00:09:04.237Z,25.70
2023-04-20T00:11:31.011Z,25.80
2023-04-20T00:13:58.170Z,23.70
2023-04-20T00:16:25.107Z,23.30
2023-04-20T00:18:51.879Z,24.80
2023-04-20T00:21:23.331Z,24.50
2023-04-20T00:23:50.661Z,22.40
2023-04-20T00:26:17.874Z,17.60
2023-04-20T00:28:45.389Z,18.90
2023-04-20T00:31:12.318Z,22.50
2023-04-20T00:33:39.148Z,17.70
2023-04-20T00:36:08.380Z,17.70
2023-04-20T00:38:36.504Z,21.00
2023-04-20T00:41:03.342Z,21.30
2023-04-20T00:43:32.071Z,17.80
2023-04-20T00:45:59.147Z,18.40
2023-04-20T00:48:26.066Z,23.30
2023-04-20T00:50:52.896Z,22.60
2023-04-20T00:53:19.794Z,22.70
2023-04-20T00:55:46.626Z,27.40
2023-04-20T00:58:13.666Z,29.70
2023-04-20T01:00:40.593Z,25.60
2023-04-20T01:03:08.219Z,20.40
2023-04-20T01:05:35.260Z,16.30
2023-04-20T01:08:02.558Z,20.20
2023-04-20T01:10:29.976Z,22.60
2023-04-20T01:12:57.890Z,26.70
2023-04-20T01:15:25.742Z,17.50
2023-04-20T01:17:53.151Z,17.30
2023-04-20T01:20:20.015Z,15.80
2023-04-20T01:22:50.814Z,22.80
2023-04-20T01:25:17.949Z,31.50
2023-04-20T01:27:47.941Z,20.30
2023-04-20T01:30:16.641Z,26.90
2023-04-20T01:32:43.842Z,21.10
2023-04-20T01:35:10.692Z,23.90
2023-04-20T01:37:38.690Z,19.60
2023-04-20T01:40:08.707Z,27.40
2023-04-20T01:42:37.066Z,21.40
2023-04-20T01:45:05.826Z,23.10
2023-04-20T01:47:33.631Z,19.90
2023-04-20T01:50:00.521Z,26.00
2023-04-20T01:52:27.553Z,23.60
2023-04-20T01:54:54.394Z,19.80
2023-04-20T01:57:21.430Z,19.70
2023-04-20T01:59:48.509Z,24.90
2023-04-20T02:02:15.426Z,20.60
2023-04-20T02:04:42.415Z,28.20
2023-04-20T02:07:09.502Z,31.70
2023-04-20T02:09:38.172Z,28.80
2023-04-20T02:12:05.274Z,27.70
2023-04-20T02:14:32.455Z,39.00
2023-04-20T02:17:00.632Z,33.90
2023-04-20T02:19:27.560Z,29.60
2023-04-20T02:21:54.644Z,37.40
2023-04-20T02:24:21.958Z,42.70
2023-04-20T02:26:48.926Z,51.40
2023-04-20T02:29:16.381Z,37.50
2023-04-20T02:31:43.949Z,43.10
2023-04-20T02:34:10.918Z,42.30
2023-04-20T02:36:38.262Z,59.00
2023-04-20T02:39:05.395Z,43.70
2023-04-20T02:41:34.508Z,49.40
2023-04-20T02:44:03.362Z,43.50
2023-04-20T02:46:31.767Z,47.90
2023-04-20T02:48:59.315Z,34.20
2023-04-20T02:51:26.470Z,36.70
2023-04-20T02:53:53.922Z,44.50
2023-04-20T02:56:30.697Z,40.40
2023-04-20T02:59:01.580Z,49.80
2023-04-20T03:02:07.933Z,44.00
2023-04-20T03:04:37.544Z,40.70
2023-04-20T03:07:14.006Z,34.70
2023-04-20T03:09:43.294Z,41.40
2023-04-20T03:12:22.632Z,43.50
2023-04-20T03:14:58.623Z,46.00
2023-04-20T03:17:36.362Z,42.60
2023-04-20T03:20:04.453Z,33.20
2023-04-20T03:22:31.750Z,40.80
2023-04-20T03:25:01.231Z,37.00
2023-04-20T03:27:47.729Z,39.70
2023-04-20T03:30:14.868Z,42.90
2023-04-20T03:32:42.473Z,42.90
2023-04-20T03:35:09.758Z,44.40
2023-04-20T03:37:37.811Z,40.80
2023-04-20T03:40:10.007Z,47.70
2023-04-20T03:42:37.578Z,41.50
2023-04-20T03:45:05.902Z,45.70
2023-04-20T03:47:33.395Z,38.60
2023-04-20T03:50:00.384Z,39.50
2023-04-20T03:52:28.357Z,35.10
2023-04-20T03:54:55.769Z,40.70
2023-04-20T03:57:22.655Z,36.60
2023-04-20T03:59:49.646Z,26.40
2023-04-20T04:02:18.849Z,37.40
2023-04-20T04:04:47.001Z,22.10
2023-04-20T04:07:14.615Z,26.10
2023-04-20T04:09:42.417Z,35.90
2023-04-20T04:12:09.490Z,31.10
2023-04-20T04:14:37.331Z,26.90
2023-04-20T04:17:04.568Z,31.50
2023-04-20T04:19:33.196Z,25.40
2023-04-20T04:22:00.446Z,27.00
2023-04-20T04:24:27.565Z,26.90
2023-04-20T04:27:05.858Z,23.70
2023-04-20T04:29:41.402Z,28.10
2023-04-20T04:32:39.379Z,26.60
2023-04-20T04:35:45.698Z,36.10
2023-04-20T04:38:23.780Z,31.20
2023-04-20T04:40:53.013Z,28.60
2023-04-20T04:43:19.956Z,31.20
2023-04-20T04:45:55.044Z,27.60
2023-04-20T04:48:22.661Z,26.40
2023-04-20T04:50:49.547Z,26.70
2023-04-20T04:53:16.903Z,27.30
2023-04-20T04:55:49.693Z,27.80
2023-04-20T04:58:16.533Z,29.30
2023-04-20T05:00:43.526Z,27.60
2023-04-20T05:03:10.735Z,28.70
2023-04-20T05:05:37.757Z,23.70
2023-04-20T05:08:05.124Z,20.70
2023-04-20T05:10:33.522Z,29.10
2023-04-20T05:13:00.460Z,25.90
2023-04-20T05:15:27.502Z,27.40
2023-04-20T05:17:54.556Z,21.40
2023-04-20T05:20:21.666Z,19.20
2023-04-20T05:22:48.857Z,20.30
2023-04-20T05:25:15.959Z,20.50
2023-04-20T05:27:43.124Z,16.90
2023-04-20T05:30:20.353Z,14.70
2023-04-20T05:32:52.628Z,18.20
2023-04-20T05:35:22.950Z,17.80
2023-04-20T05:37:51.378Z,13.70
2023-04-20T05:40:19.120Z,22.10
2023-04-20T05:42:48.764Z,26.90
2023-04-20T05:45:16.462Z,38.40
2023-04-20T05:47:52.938Z,30.50
2023-04-20T05:50:20.098Z,29.50
2023-04-20T05:55:48.539Z,24.00
2023-04-20T05:58:17.134Z,29.30
2023-04-20T06:02:16.932Z,36.20
2023-04-20T06:04:44.867Z,31.70
2023-04-20T06:07:12.413Z,25.00
2023-04-20T06:09:40.973Z,26.20
2023-04-20T06:12:09.545Z,44.00
2023-04-20T06:14:37.292Z,28.40
2023-04-20T06:17:06.648Z,36.20
2023-04-20T06:19:35.404Z,28.80
2023-04-20T06:22:08.538Z,37.10
2023-04-20T06:24:37.085Z,29.60
2023-04-20T06:27:08.246Z,34.30
2023-04-20T06:29:43.693Z,28.80
2023-04-20T06:32:12.438Z,28.40
2023-04-20T06:34:45.903Z,29.20
2023-04-20T06:37:24.538Z,31.60
2023-04-20T06:40:11.080Z,25.20
2023-04-20T06:42:39.067Z,31.30
2023-04-20T06:45:07.128Z,35.20
2023-04-20T06:47:35.131Z,26.00
2023-04-20T06:50:07.537Z,29.30
2023-04-20T06:52:37.860Z,31.00
2023-04-20T06:55:06.627Z,26.50
2023-04-20T06:57:33.721Z,40.30
2023-04-20T07:00:01.006Z,24.60
2023-04-20T07:02:28.302Z,25.50
2023-04-20T07:05:01.432Z,20.60
2023-04-20T07:07:28.678Z,24.60
2023-04-20T07:10:04.024Z,32.70
2023-04-20T07:12:31.897Z,23.10
2023-04-20T07:14:59.042Z,37.50
2023-04-20T07:17:29.314Z,24.10
2023-04-20T07:19:56.853Z,27.40
2023-04-20T07:22:24.865Z,29.00
2023-04-20T07:24:51.973Z,23.70
2023-04-20T07:27:19.732Z,23.40
2023-04-20T18:29:19.007Z,18.50
2023-04-20T18:32:28.089Z,18.50
2023-04-20T18:34:59.965Z,21.20
2023-04-20T18:37:28.111Z,25.30
2023-04-20T18:39:55.955Z,26.80
2023-04-20T18:42:23.195Z,25.80
2023-04-20T18:44:52.776Z,26.80
2023-04-20T18:47:39.740Z,38.20
2023-04-20T18:50:07.231Z,34.30
2023-04-20T18:52:35.763Z,28.90
2023-04-20T18:55:03.459Z,33.90
2023-04-20T18:57:33.417Z,31.00
2023-04-20T19:00:00.747Z,34.00
2023-04-20T19:02:28.762Z,36.70
2023-04-20T19:04:56.439Z,40.00
2023-04-20T19:07:23.385Z,32.50
2023-04-20T19:09:50.316Z,49.50
2023-04-20T19:12:17.285Z,33.70
2023-04-20T19:14:47.062Z,34.90
2023-04-20T19:17:17.536Z,34.90
2023-04-20T19:19:45.518Z,42.00
2023-04-20T19:22:12.375Z,49.50
2023-04-20T19:24:40.015Z,29.50
2023-04-20T19:27:08.580Z,44.60
2023-04-20T19:29:36.087Z,52.80
2023-04-20T19:32:03.122Z,55.80
2023-04-20T19:34:32.860Z,55.60
2023-04-20T19:37:00.045Z,42.20
2023-04-20T19:39:28.503Z,52.70
2023-04-20T19:41:55.648Z,41.70
2023-04-20T19:44:23.411Z,39.30
2023-04-20T19:46:50.906Z,38.50
2023-04-20T19:49:18.980Z,39.50
2023-04-20T19:51:47.238Z,49.70
2023-04-20T19:54:16.952Z,50.10
2023-04-20T19:56:44.537Z,43.70
2023-04-20T19:59:11.575Z,53.20
2023-04-20T20:01:38.551Z,41.10
2023-04-20T20:04:05.720Z,37.20
2023-04-20T20:06:32.939Z,34.20
2023-04-20T20:09:00.076Z,40.80
2023-04-20T20:11:27.974Z,34.90
2023-04-20T20:13:54.944Z,33.10
2023-04-20T20:16:21.949Z,30.80
2023-04-20T20:18:50.534Z,38.40
2023-04-20T20:21:17.583Z,37.40
2023-04-20T20:23:44.639Z,33.40
2023-04-20T20:26:11.754Z,25.70
2023-04-20T20:28:38.593Z,39.10
2023-04-20T20:31:05.562Z,19.90
2023-04-20T20:33:33.200Z,22.80
2023-04-20T20:36:01.040Z,38.00
2023-04-20T20:38:30.454Z,30.30
2023-04-20T20:40:58.211Z,32.20
2023-04-20T20:43:25.066Z,32.10
2023-04-20T20:45:51.960Z,24.50
2023-04-20T20:48:18.845Z,24.50
2023-04-20T20:50:45.873Z,17.40
2023-04-20T20:53:13.481Z,26.80
2023-04-20T20:55:40.561Z,26.80
2023-04-20T20:58:07.346Z,29.10
2023-04-20T21:00:35.229Z,27.70
2023-04-20T21:03:02.429Z,26.80
2023-04-20T21:05:29.372Z,26.10
2023-04-20T21:07:58.306Z,26.70
2023-04-20T21:10:25.284Z,25.10
2023-04-20T21:12:52.148Z,18.70
2023-04-20T21:15:20.900Z,28.90
2023-04-20T21:17:47.822Z,23.90
2023-04-20T21:20:14.892Z,26.50
2023-04-20T21:22:42.204Z,31.90
2023-04-20T21:25:09.294Z,22.80
2023-04-20T21:27:36.206Z,26.50
2023-04-20T21:30:31.907Z,19.10
2023-04-20T21:32:58.939Z,23.90
2023-04-20T21:35:26.003Z,22.80
2023-04-20T21:37:53.208Z,19.60
2023-04-20T21:40:21.392Z,25.00
2023-04-20T21:42:48.623Z,21.70
2023-04-20T21:45:15.548Z,21.70
2023-04-20T21:47:42.482Z,26.00
2023-04-20T21:50:10.029Z,20.20
2023-04-20T21:52:37.278Z,21.60
2023-04-20T21:55:04.496Z,24.90
2023-04-20T21:57:31.937Z,25.90
2023-04-20T21:59:58.733Z,21.30
2023-04-20T22:02:25.818Z,18.80
2023-04-20T22:04:53.276Z,20.90
2023-04-20T22:07:20.572Z,30.00
2023-04-20T22:09:47.908Z,24.00
2023-04-20T22:12:16.011Z,18.90
2023-04-20T22:14:44.024Z,25.60
2023-04-20T22:17:11.336Z,23.50
2023-04-20T22:19:38.275Z,17.40
2023-04-20T22:22:05.236Z,24.40
2023-04-20T22:24:32.856Z,25.20
2023-04-20T22:27:01.748Z,26.00
2023-04-20T22:29:28.804Z,24.30
2023-04-20T22:31:55.599Z,24.80
2023-04-20T22:34:25.419Z,30.80
2023-04-20T22:36:52.570Z,33.60
2023-04-20T22:39:19.759Z,31.80
2023-04-20T22:41:46.836Z,20.90
2023-04-20T22:44:13.729Z,31.50
2023-04-20T22:46:40.989Z,15.90
2023-04-20T22:49:08.531Z,21.10
2023-04-20T22:51:35.840Z,29.50
2023-04-20T22:54:03.826Z,21.40
2023-04-20T22:56:31.550Z,24.10
2023-04-20T22:58:58.389Z,33.60
2023-04-20T23:01:25.410Z,26.30
2023-04-20T23:03:52.410Z,20.90
2023-04-20T23:06:21.834Z,29.90
2023-04-20T23:08:48.851Z,25.50
2023-04-20T23:11:15.871Z,26.40
2023-04-20T23:13:42.756Z,24.00
2023-04-20T23:16:10.141Z,23.40
2023-04-20T23:18:37.198Z,24.50
2023-04-20T23:21:05.247Z,17.80
2023-04-20T23:23:32.410Z,29.80
2023-04-20T23:25:59.355Z,23.70
2023-04-20T23:28:26.437Z,23.30
2023-04-20T23:30:53.307Z,18.80
2023-04-20T23:33:20.712Z,22.70
2023-04-20T23:35:47.536Z,21.90
2023-04-20T23:38:14.769Z,25.10
2023-04-20T23:40:41.671Z,23.00
2023-04-20T23:43:08.541Z,27.60
2023-04-20T23:45:35.946Z,23.00
2023-04-20T23:48:02.910Z,24.20
2023-04-20T23:50:29.938Z,21.90
2023-04-20T23:52:57.096Z,30.80
2023-04-20T23:55:23.948Z,24.00
2023-04-20T23:57:52.357Z,19.40
